createdAt,value
2018-04-20T00:00:31.615Z,13.80
2018-04-20T00:02:59.144Z,13.67
2018-04-20T00:05:26.620Z,14.00
2018-04-20T00:07:54.070Z,14.30
2018-04-20T00:10:22.744Z,14.97
2018-04-20T00:12:50.196Z,13.57
2018-04-20T00:15:17.764Z,13.77
2018-04-20T00:17:45.233Z,13.27
2018-04-20T00:20:12.736Z,13.43
2018-04-20T00:22:40.240Z,13.77
2018-04-20T00:25:07.708Z,12.50
2018-04-20T00:27:35.192Z,14.30
2018-04-20T00:30:02.638Z,13.90
2018-04-20T00:32:30.159Z,13.20
2018-04-20T00:34:57.611Z,13.87
2018-04-20T00:37:25.095Z,15.77
2018-04-20T00:39:52.702Z,15.60
2018-04-20T00:42:20.191Z,16.00
2018-04-20T00:44:48.651Z,14.00
2018-04-20T00:47:16.135Z,15.77
2018-04-20T00:49:43.585Z,15.33
2018-04-20T00:52:11.067Z,15.03
2018-04-20T00:54:38.524Z,15.90
2018-04-20T00:57:06.012Z,17.00
2018-04-20T00:59:33.474Z,16.40
2018-04-20T01:02:00.964Z,14.80
2018-04-20T01:04:28.427Z,14.73
2018-04-20T01:06:55.912Z,15.80
2018-04-20T01:09:23.371Z,16.37
2018-04-20T01:11:50.887Z,17.00
2018-04-20T01:14:18.363Z,15.43
2018-04-20T01:16:45.847Z,17.57
2018-04-20T01:19:13.299Z,15.80
2018-04-20T01:21:41.746Z,16.70
2018-04-20T01:24:09.191Z,15.17
2018-04-20T01:26:36.668Z,17.70
2018-04-20T01:29:04.119Z,16.87
2018-04-20T01:31:31.639Z,17.80
2018-04-20T01:33:59.090Z,15.43
2018-04-20T01:36:26.575Z,17.40
2018-04-20T01:38:54.042Z,14.53
2018-04-20T01:41:21.528Z,16.67
2018-04-20T01:43:48.986Z,17.17
2018-04-20T01:46:16.463Z,17.10
2018-04-20T01:48:43.947Z,17.97
2018-04-20T01:51:11.436Z,16.67
2018-04-20T01:53:38.927Z,18.70
2018-04-20T01:56:06.381Z,16.80
2018-04-20T01:58:33.872Z,15.57
2018-04-20T02:01:01.327Z,16.47
2018-04-20T02:03:28.816Z,18.17
2018-04-20T02:05:56.341Z,15.63
2018-04-20T02:08:23.819Z,18.03
2018-04-20T02:10:51.276Z,16.80
2018-04-20T02:13:18.801Z,18.83
2018-04-20T02:15:46.311Z,19.67
2018-04-20T02:18:13.792Z,18.83
2018-04-20T02:20:41.245Z,18.23
2018-04-20T02:23:08.732Z,19.00
2018-04-20T02:25:36.179Z,18.00
2018-04-20T02:28:03.668Z,18.40
2018-04-20T02:30:32.085Z,18.23
2018-04-20T02:32:59.572Z,18.87
2018-04-20T02:35:27.027Z,18.90
2018-04-20T02:37:54.522Z,17.50
2018-04-20T02:40:21.981Z,19.47
2018-04-20T02:42:49.467Z,17.27
2018-04-20T02:45:16.919Z,19.83
2018-04-20T02:47:44.484Z,19.77
2018-04-20T02:50:12.019Z,19.37
2018-04-20T02:52:39.477Z,18.93
2018-04-20T02:55:06.961Z,20.10
2018-04-20T02:57:34.423Z,18.97
2018-04-20T03:00:01.918Z,17.13
2018-04-20T03:02:29.437Z,18.80
2018-04-20T03:04:56.921Z,21.40
2018-04-20T03:07:24.380Z,19.00
2018-04-20T03:09:51.868Z,18.90
2018-04-20T03:12:19.356Z,17.53
2018-04-20T03:14:46.932Z,18.37
2018-04-20T03:17:14.581Z,19.70
2018-04-20T03:19:42.138Z,19.10
2018-04-20T03:22:09.634Z,17.83
2018-04-20T03:24:37.088Z,18.27
2018-04-20T03:27:04.572Z,17.50
2018-04-20T03:29:32.083Z,18.20
2018-04-20T03:31:59.567Z,17.73
2018-04-20T03:34:27.921Z,18.00
2018-04-20T03:36:55.447Z,17.93
2018-04-20T03:39:22.903Z,18.57
2018-04-20T03:41:50.475Z,18.40
2018-04-20T03:44:17.927Z,19.20
2018-04-20T03:46:45.399Z,17.10
2018-04-20T03:49:12.943Z,17.40
2018-04-20T03:51:40.454Z,16.40
2018-04-20T03:54:07.903Z,18.10
2018-04-20T03:56:35.361Z,17.80
2018-04-20T03:59:02.851Z,17.17
2018-04-20T04:01:30.332Z,19.70
2018-04-20T04:03:57.994Z,16.43
2018-04-20T04:06:25.443Z,18.90
2018-04-20T04:08:53.065Z,17.90
2018-04-20T04:11:20.576Z,17.50
2018-04-20T04:13:48.055Z,18.27
2018-04-20T04:16:27.171Z,18.30
2018-04-20T04:19:06.400Z,18.43
2018-04-20T04:21:46.660Z,18.73
2018-04-20T04:24:25.808Z,18.77
2018-04-20T04:27:00.872Z,18.40
2018-04-20T04:29:28.360Z,15.73
2018-04-20T04:31:56.671Z,19.07
2018-04-20T04:34:24.136Z,17.97
2018-04-20T04:36:51.649Z,17.53
2018-04-20T04:39:20.141Z,16.60
2018-04-20T04:41:47.591Z,18.63
2018-04-20T04:44:15.071Z,17.60
2018-04-20T04:46:42.617Z,18.00
2018-04-20T04:49:10.104Z,17.33
2018-04-20T04:51:37.554Z,15.90
2018-04-20T04:54:05.044Z,17.70
2018-04-20T04:56:32.503Z,15.53
2018-04-20T04:58:59.998Z,16.33
2018-04-20T05:01:27.446Z,17.67
2018-04-20T05:03:54.926Z,17.53
2018-04-20T05:06:22.375Z,17.93
2018-04-20T05:08:49.857Z,15.43
2018-04-20T05:11:17.302Z,18.37
2018-04-20T05:13:44.778Z,17.27
2018-04-20T05:16:12.231Z,17.27
2018-04-20T05:18:40.676Z,17.50
2018-04-20T05:21:08.138Z,17.10
2018-04-20T05:23:35.675Z,16.80
2018-04-20T05:26:03.127Z,18.03
2018-04-20T05:28:30.583Z,17.57
2018-04-20T05:30:58.074Z,17.70
2018-04-20T05:33:25.625Z,17.40
2018-04-20T05:35:53.108Z,17.30
2018-04-20T05:38:20.558Z,17.27
2018-04-20T05:40:49.031Z,16.60
2018-04-20T05:43:16.485Z,17.80
2018-04-20T05:45:43.972Z,16.50
2018-04-20T05:48:11.415Z,18.40
2018-04-20T05:50:38.912Z,18.10
2018-04-20T05:53:06.364Z,16.17
2018-04-20T05:55:33.859Z,17.03
2018-04-20T05:58:02.324Z,17.07
2018-04-20T06:00:30.820Z,17.80
2018-04-20T06:02:58.287Z,16.93
2018-04-20T06:05:26.759Z,17.23
2018-04-20T06:07:54.219Z,17.13
2018-04-20T06:10:21.713Z,18.97
2018-04-20T06:12:49.167Z,18.20
2018-04-20T06:15:17.576Z,17.50
2018-04-20T06:17:45.101Z,18.40
2018-04-20T06:20:12.515Z,18.27
2018-04-20T06:22:39.992Z,17.53
2018-04-20T06:25:07.446Z,17.80
2018-04-20T06:27:34.933Z,17.67
2018-04-20T06:30:02.387Z,18.43
2018-04-20T06:32:29.867Z,19.70
2018-04-20T06:34:57.337Z,18.03
2018-04-20T06:37:24.915Z,18.50
2018-04-20T06:39:52.371Z,18.50
2018-04-20T06:42:19.874Z,17.60
2018-04-20T06:44:47.336Z,19.13
2018-04-20T06:47:14.836Z,18.73
2018-04-20T06:49:42.298Z,19.53
2018-04-20T06:52:09.784Z,18.90
2018-04-20T06:54:37.272Z,19.33
2018-04-20T06:57:04.736Z,19.67
2018-04-20T06:59:32.242Z,19.33
2018-04-20T07:01:59.799Z,18.27
2018-04-20T07:04:28.371Z,18.83
2018-04-20T07:06:55.828Z,17.33
2018-04-20T07:09:23.315Z,20.33
2018-04-20T07:11:50.776Z,19.90
2018-04-20T07:14:18.308Z,17.93
2018-04-20T07:16:45.767Z,20.70
2018-04-20T07:19:13.247Z,19.73
2018-04-20T07:21:40.699Z,20.57
2018-04-20T07:24:08.191Z,18.20
2018-04-20T07:26:35.655Z,19.33
2018-04-20T07:29:03.099Z,17.90
2018-04-20T07:31:30.669Z,19.63
2018-04-20T07:33:58.164Z,18.40
2018-04-20T07:36:25.639Z,18.70
2018-04-20T07:38:53.181Z,21.17
2018-04-20T07:41:20.762Z,18.87
2018-04-20T07:43:48.399Z,21.80
2018-04-20T07:46:15.879Z,18.47
2018-04-20T07:48:43.332Z,18.33
2018-04-20T07:51:10.831Z,18.90
2018-04-20T07:53:38.375Z,20.23
2018-04-20T07:56:05.860Z,19.10
2018-04-20T07:58:33.355Z,20.73
2018-04-20T08:01:00.835Z,20.20
2018-04-20T08:03:28.300Z,19.57
2018-04-20T08:05:55.798Z,20.57
2018-04-20T08:08:23.287Z,20.33
2018-04-20T08:10:50.724Z,20.27
2018-04-20T08:13:19.211Z,19.80
2018-04-20T08:15:46.687Z,20.87
2018-04-20T08:18:14.185Z,19.43
2018-04-20T08:20:41.687Z,20.43
2018-04-20T08:23:09.164Z,19.30
2018-04-20T08:25:36.704Z,19.83
2018-04-20T08:28:04.190Z,20.63
2018-04-20T08:30:31.719Z,20.10
2018-04-20T08:32:59.194Z,20.07
2018-04-20T08:35:26.647Z,20.17
2018-04-20T08:37:54.144Z,19.27
2018-04-20T08:40:21.648Z,20.50
2018-04-20T08:42:49.209Z,19.73
2018-04-20T08:45:16.768Z,20.43
2018-04-20T08:47:44.252Z,20.50
2018-04-20T08:50:11.708Z,20.50
2018-04-20T08:52:39.196Z,19.00
2018-04-20T08:55:06.657Z,18.43
2018-04-20T08:57:34.167Z,18.50
2018-04-20T09:00:01.722Z,18.77
2018-04-20T09:02:29.271Z,18.27
2018-04-20T09:04:56.780Z,20.27
2018-04-20T09:07:24.268Z,19.10
2018-04-20T09:09:51.717Z,18.63
2018-04-20T09:12:19.179Z,19.23
2018-04-20T09:14:46.664Z,19.87
2018-04-20T09:17:14.119Z,18.87
2018-04-20T09:19:41.671Z,19.50
2018-04-20T09:22:09.131Z,18.53
2018-04-20T09:24:36.611Z,19.57
2018-04-20T09:27:04.093Z,18.03
2018-04-20T09:29:31.607Z,19.40
2018-04-20T09:31:59.067Z,20.60
2018-04-20T09:34:26.597Z,21.23
2018-04-20T09:36:54.086Z,20.83
2018-04-20T09:39:21.737Z,20.40
2018-04-20T09:41:49.204Z,19.90
2018-04-20T09:44:16.712Z,20.27
2018-04-20T09:46:44.169Z,18.83
2018-04-20T09:49:11.629Z,19.30
2018-04-20T09:51:39.116Z,21.13
2018-04-20T09:54:06.570Z,22.40
2018-04-20T09:56:34.052Z,18.20
2018-04-20T09:59:01.508Z,20.70
2018-04-20T10:01:28.997Z,21.63
2018-04-20T10:03:57.115Z,19.90
2018-04-20T10:06:24.612Z,19.20
2018-04-20T10:08:52.144Z,22.70
2018-04-20T10:11:19.640Z,20.73
2018-04-20T10:13:47.191Z,20.73
2018-04-20T10:16:14.675Z,21.30
2018-04-20T10:18:42.127Z,20.73
2018-04-20T10:21:09.597Z,21.83
2018-04-20T10:23:37.924Z,21.07
2018-04-20T10:26:05.415Z,21.83
2018-04-20T10:28:32.863Z,19.70
2018-04-20T10:31:01.267Z,18.10
2018-04-20T10:33:28.748Z,19.70
2018-04-20T10:35:56.226Z,21.58
2018-04-20T10:38:23.727Z,19.97
2018-04-20T10:40:51.184Z,20.40
2018-04-20T10:43:18.678Z,19.97
2018-04-20T10:45:49.744Z,18.50
2018-04-20T10:48:17.236Z,16.33
2018-04-20T10:50:44.700Z,20.13
2018-04-20T10:53:14.107Z,17.97
2018-04-20T10:55:41.559Z,18.10
2018-04-20T10:58:09.041Z,20.10
2018-04-20T11:00:36.490Z,20.30
2018-04-20T11:03:03.962Z,20.10
2018-04-20T11:05:31.419Z,19.60
2018-04-20T11:07:58.902Z,19.10
2018-04-20T11:10:26.451Z,20.07
2018-04-20T11:12:55.922Z,19.80
2018-04-20T11:15:23.424Z,19.47
2018-04-20T11:17:50.884Z,19.17
2018-04-20T11:20:18.392Z,17.87
2018-04-20T11:22:45.849Z,20.20
2018-04-20T11:25:13.333Z,20.10
2018-04-20T11:27:40.786Z,18.50
2018-04-20T11:30:08.280Z,18.27
2018-04-20T11:32:35.740Z,21.33
2018-04-20T11:35:04.183Z,20.43
2018-04-20T11:37:31.644Z,18.83
2018-04-20T11:39:59.135Z,19.10
2018-04-20T11:42:26.596Z,18.87
2018-04-20T11:44:54.084Z,19.80
2018-04-20T11:47:22.190Z,18.90
2018-04-20T11:49:49.661Z,20.73
2018-04-20T11:52:18.101Z,18.40
2018-04-20T11:54:45.613Z,21.60
2018-04-20T11:57:14.034Z,20.40
2018-04-20T11:59:41.532Z,22.17
2018-04-20T12:02:09.037Z,21.60
2018-04-20T12:04:36.488Z,24.07
2018-04-20T12:07:03.940Z,24.80
2018-04-20T12:09:31.432Z,22.63
2018-04-20T12:11:58.886Z,22.47
2018-04-20T12:14:27.342Z,24.10
2018-04-20T12:16:54.822Z,21.60
2018-04-20T12:19:23.291Z,22.60
2018-04-20T12:21:50.772Z,23.93
2018-04-20T12:24:18.236Z,22.80
2018-04-20T12:26:45.725Z,22.60
2018-04-20T12:29:13.179Z,20.93
2018-04-20T12:31:40.664Z,22.57
2018-04-20T12:34:08.111Z,21.13
2018-04-20T12:36:35.609Z,21.30
2018-04-20T12:39:03.080Z,24.53
2018-04-20T12:41:31.594Z,24.00
2018-04-20T12:43:59.060Z,24.53
2018-04-20T12:46:26.546Z,23.50
2018-04-20T12:48:54.916Z,24.30
2018-04-20T12:51:23.383Z,25.23
2018-04-20T12:53:50.793Z,23.80
2018-04-20T12:56:18.278Z,25.00
2018-04-20T12:58:46.696Z,25.63
2018-04-20T13:01:14.215Z,24.23
2018-04-20T13:03:41.671Z,27.37
2018-04-20T13:06:09.120Z,27.30
2018-04-20T13:08:36.600Z,27.20
2018-04-20T13:11:04.047Z,28.53
2018-04-20T13:13:31.544Z,31.00
2018-04-20T13:16:00.973Z,31.17
2018-04-20T13:18:29.453Z,28.00
2018-04-20T13:20:56.920Z,29.67
2018-04-20T13:23:25.400Z,27.17
2018-04-20T13:25:52.860Z,26.63
2018-04-20T13:28:20.359Z,26.47
2018-04-20T13:30:47.813Z,24.87
2018-04-20T13:33:16.224Z,24.63
2018-04-20T13:35:43.661Z,24.67
2018-04-20T13:38:11.121Z,26.00
2018-04-20T13:40:38.568Z,23.90
2018-04-20T13:43:06.041Z,22.83
2018-04-20T13:45:33.497Z,22.93
2018-04-20T13:48:02.941Z,23.17
2018-04-20T13:50:30.404Z,22.87
2018-04-20T13:52:57.868Z,23.50
2018-04-20T13:55:25.353Z,20.80
2018-04-20T13:57:52.812Z,23.43
2018-04-20T14:00:21.208Z,22.33
2018-04-20T14:02:48.659Z,20.90
2018-04-20T14:05:16.142Z,20.60
2018-04-20T14:07:43.601Z,21.60
2018-04-20T14:10:11.088Z,21.50
2018-04-20T14:12:39.438Z,19.60
2018-04-20T14:15:06.927Z,23.70
2018-04-20T14:17:34.380Z,23.00
2018-04-20T14:20:01.879Z,25.40
2018-04-20T14:22:29.341Z,24.00
2018-04-20T14:24:56.842Z,25.93
2018-04-20T14:27:24.336Z,25.57
2018-04-20T14:29:51.788Z,26.97
2018-04-20T14:32:19.284Z,26.93
2018-04-20T14:34:46.742Z,26.50
2018-04-20T14:37:15.171Z,26.80
2018-04-20T14:39:42.622Z,26.43
2018-04-20T14:42:10.112Z,26.60
2018-04-20T14:44:37.583Z,25.27
2018-04-20T14:47:05.070Z,23.90
2018-04-20T14:49:32.524Z,25.50
2018-04-20T14:52:00.011Z,24.23
2018-04-20T14:54:27.477Z,24.57
2018-04-20T14:56:54.985Z,23.47
2018-04-20T14:59:22.456Z,23.33
2018-04-20T15:01:50.982Z,25.27
2018-04-20T15:04:18.444Z,24.30
2018-04-20T15:06:45.901Z,24.80
2018-04-20T15:09:13.388Z,26.50
2018-04-20T15:11:40.844Z,24.70
2018-04-20T15:14:08.319Z,23.90
2018-04-20T15:16:35.772Z,22.93
2018-04-20T15:19:03.292Z,25.60
2018-04-20T15:21:30.732Z,24.67
2018-04-20T15:23:59.146Z,25.03
2018-04-20T15:26:26.589Z,26.27
2018-04-20T15:28:54.053Z,24.73
2018-04-20T15:31:23.468Z,26.97
2018-04-20T15:33:50.955Z,27.07
2018-04-20T15:36:18.410Z,24.43
2018-04-20T15:38:45.897Z,27.50
2018-04-20T15:41:13.360Z,26.33
2018-04-20T15:43:40.853Z,24.90
2018-04-20T15:46:10.268Z,23.73
2018-04-20T15:48:37.760Z,19.50
2018-04-20T15:51:05.211Z,21.07
2018-04-20T15:53:33.671Z,20.70
2018-04-20T15:56:01.130Z,20.60
2018-04-20T15:58:29.620Z,20.37
2018-04-20T16:00:57.080Z,20.47
2018-04-20T16:03:24.589Z,17.73
2018-04-20T16:05:52.972Z,19.80
2018-04-20T16:08:20.457Z,18.70
2018-04-20T16:10:47.912Z,16.83
2018-04-20T16:13:16.320Z,17.60
2018-04-20T16:15:43.783Z,18.90
2018-04-20T16:18:11.249Z,18.17
2018-04-20T16:20:38.738Z,18.77
2018-04-20T16:23:06.213Z,18.87
2018-04-20T16:25:33.741Z,17.47
2018-04-20T16:28:01.205Z,17.20
2018-04-20T16:30:28.699Z,19.47
2018-04-20T16:32:58.069Z,17.77
2018-04-20T16:35:25.564Z,18.53
2018-04-20T16:37:53.022Z,19.27
2018-04-20T16:40:21.427Z,19.47
2018-04-20T16:42:48.882Z,25.73
2018-04-20T16:45:16.371Z,24.17
2018-04-20T16:47:43.824Z,24.60
2018-04-20T16:50:11.316Z,24.43
2018-04-20T16:52:38.785Z,22.37
2018-04-20T16:55:06.285Z,25.63
2018-04-20T16:57:33.747Z,26.10
2018-04-20T17:00:01.248Z,26.00
2018-04-20T17:02:29.620Z,26.83
2018-04-20T17:04:58.161Z,27.33
2018-04-20T17:07:25.624Z,25.30
2018-04-20T17:09:53.105Z,26.60
2018-04-20T17:12:21.607Z,26.40
2018-04-20T17:14:49.255Z,28.73
2018-04-20T17:17:16.742Z,26.40
2018-04-20T17:19:44.196Z,28.10
2018-04-20T17:22:11.683Z,29.07
2018-04-20T17:24:39.169Z,27.40
2018-04-20T17:27:06.649Z,26.03
2018-04-20T17:29:34.108Z,27.63
2018-04-20T17:32:01.580Z,29.90
2018-04-20T17:34:29.041Z,29.27
2018-04-20T17:36:56.529Z,31.10
2018-04-20T17:39:23.989Z,27.60
2018-04-20T17:41:51.479Z,25.90
2018-04-20T17:44:18.940Z,26.10
2018-04-20T17:46:47.331Z,27.33
2018-04-20T17:49:14.787Z,28.47
2018-04-20T17:51:42.256Z,26.83
2018-04-20T17:54:09.746Z,29.17
2018-04-20T17:56:37.193Z,25.93
2018-04-20T17:59:04.679Z,29.70
2018-04-20T18:01:32.144Z,28.60
2018-04-20T18:03:59.632Z,32.00
2018-04-20T18:06:27.089Z,30.83
2018-04-20T18:08:54.580Z,34.23
2018-04-20T18:11:23.002Z,33.30
2018-04-20T18:13:50.501Z,36.17
2018-04-20T18:16:17.988Z,37.50
2018-04-20T18:18:46.483Z,36.30
2018-04-20T18:21:13.940Z,37.97
2018-04-20T18:23:42.462Z,37.23
2018-04-20T18:26:09.913Z,38.33
2018-04-20T18:28:38.315Z,40.77
2018-04-20T18:31:05.767Z,41.20
2018-04-20T18:33:33.295Z,41.37
2018-04-20T18:36:00.748Z,40.87
2018-04-20T18:38:28.260Z,39.37
2018-04-20T18:40:55.727Z,45.00
2018-04-20T18:43:23.178Z,41.07
2018-04-20T18:45:50.696Z,42.57
2018-04-20T18:48:18.171Z,45.23
2018-04-20T18:50:45.704Z,45.10
2018-04-20T18:53:13.164Z,42.87
2018-04-20T18:55:40.690Z,45.93
2018-04-20T18:58:08.226Z,45.80
2018-04-20T19:00:35.724Z,44.77
2018-04-20T19:03:04.121Z,45.80
2018-04-20T19:05:31.612Z,50.10
2018-04-20T19:07:59.096Z,49.93
2018-04-20T19:10:26.593Z,47.50
2018-04-20T19:12:54.048Z,50.03
2018-04-20T19:15:22.476Z,49.60
2018-04-20T19:17:49.949Z,49.27
2018-04-20T19:20:17.512Z,49.27
2018-04-20T19:22:45.048Z,51.37
2018-04-20T19:25:12.539Z,50.30
2018-04-20T19:27:40.036Z,52.67
2018-04-20T19:30:07.528Z,52.90
2018-04-20T19:32:35.075Z,53.57
2018-04-20T19:35:03.627Z,50.83
2018-04-20T19:37:32.069Z,52.43
2018-04-20T19:39:59.756Z,53.33
2018-04-20T19:42:28.204Z,55.30
2018-04-20T19:44:55.667Z,55.87
2018-04-20T19:47:23.242Z,56.07
2018-04-20T19:49:50.704Z,54.97
2018-04-20T19:52:18.222Z,59.13
2018-04-20T19:54:45.687Z,54.83
2018-04-20T19:57:13.192Z,58.60
2018-04-20T19:59:40.655Z,58.07
2018-04-20T20:02:08.155Z,58.00
2018-04-20T20:04:35.641Z,58.77
2018-04-20T20:07:03.113Z,60.40
2018-04-20T20:09:30.611Z,60.30
2018-04-20T20:11:58.079Z,61.80
2018-04-20T20:14:25.564Z,60.20
2018-04-20T20:16:53.032Z,65.70
2018-04-20T20:19:20.550Z,61.03
2018-04-20T20:21:48.020Z,62.60
2018-04-20T20:24:15.513Z,63.10
2018-04-20T20:26:43.903Z,61.93
2018-04-20T20:29:11.392Z,60.63
2018-04-20T20:31:38.854Z,61.37
2018-04-20T20:34:06.344Z,63.03
2018-04-20T20:36:35.786Z,64.10
2018-04-20T20:39:03.287Z,63.90
2018-04-20T20:41:30.776Z,68.40
2018-04-20T20:43:58.257Z,66.37
2018-04-20T20:46:25.719Z,66.77
2018-04-20T20:48:53.190Z,63.87
2018-04-20T20:51:20.662Z,67.57
2018-04-20T20:53:48.147Z,64.50
2018-04-20T20:56:15.635Z,66.77
2018-04-20T20:58:44.096Z,70.20
2018-04-20T21:01:11.555Z,67.57
2018-04-20T21:03:39.045Z,71.10
2018-04-20T21:06:06.513Z,72.07
2018-04-20T21:08:34.974Z,67.27
2018-04-20T21:11:02.487Z,69.27
2018-04-20T21:13:30.915Z,66.47
2018-04-20T21:15:58.403Z,66.97
2018-04-20T21:18:27.876Z,66.07
2018-04-20T21:20:56.292Z,65.83
2018-04-20T21:23:23.756Z,64.03
2018-04-20T21:25:51.259Z,65.93
2018-04-20T21:28:18.722Z,66.13
2018-04-20T21:30:46.224Z,69.90
2018-04-20T21:33:15.349Z,66.67
2018-04-20T21:35:43.147Z,69.33
2018-04-20T21:38:10.629Z,68.20
2018-04-20T21:40:38.986Z,66.40
2018-04-20T21:43:07.385Z,70.87
2018-04-20T21:45:34.854Z,67.63
2018-04-20T21:48:03.290Z,70.30
2018-04-20T21:50:31.717Z,70.70
2018-04-20T21:52:59.237Z,69.30
2018-04-20T21:55:26.708Z,71.00
2018-04-20T21:57:55.143Z,72.30
2018-04-20T22:00:22.648Z,80.62
2018-04-20T22:02:50.142Z,73.73
2018-04-20T22:05:17.612Z,71.70
2018-04-20T22:07:45.120Z,69.73
2018-04-20T22:10:12.584Z,78.50
2018-04-20T22:12:40.093Z,74.63
2018-04-20T22:15:07.565Z,71.50
2018-04-20T22:17:35.081Z,79.67
2018-04-20T22:20:02.553Z,78.97
2018-04-20T22:22:30.066Z,74.70
2018-04-20T22:24:58.472Z,75.40
2018-04-20T22:27:25.944Z,75.97
2018-04-20T22:29:53.459Z,76.20
2018-04-20T22:32:20.923Z,74.00
2018-04-20T22:34:48.417Z,77.27
2018-04-20T22:37:15.914Z,75.83
2018-04-20T22:39:43.419Z,79.30
2018-04-20T22:42:10.901Z,81.93
2018-04-20T22:44:38.399Z,80.67
2018-04-20T22:47:06.804Z,78.23
2018-04-20T22:49:36.242Z,80.20
2018-04-20T22:52:03.713Z,78.40
2018-04-20T22:54:31.220Z,78.97
2018-04-20T22:56:58.685Z,76.57
2018-04-20T22:59:26.200Z,80.00
2018-04-20T23:01:53.670Z,74.67
2018-04-20T23:04:21.180Z,73.97
2018-04-20T23:06:48.635Z,73.20
2018-04-20T23:09:16.152Z,75.50
2018-04-20T23:11:43.634Z,76.63
2018-04-20T23:14:11.112Z,79.07
2018-04-20T23:16:39.599Z,75.53
2018-04-20T23:19:07.071Z,73.93
2018-04-20T23:21:34.583Z,78.23
2018-04-20T23:24:02.056Z,80.40
2018-04-20T23:26:29.549Z,79.40
2018-04-20T23:28:57.017Z,78.80
2018-04-20T23:31:26.480Z,77.03
2018-04-20T23:33:53.952Z,79.47
2018-04-20T23:36:21.471Z,81.87
2018-04-20T23:38:49.426Z,79.47
2018-04-20T23:41:16.916Z,86.97
2018-04-20T23:43:45.380Z,82.10
2018-04-20T23:46:12.875Z,86.17
2018-04-20T23:48:40.339Z,87.33
2018-04-20T23:51:07.807Z,87.80
2018-04-20T23:53:35.301Z,91.17
2018-04-20T23:56:02.759Z,92.57
2018-04-20T23:58:30.252Z,88.40
